Time;durP1;ratioP1;P1;durP2;ratioP2;P2;SDS_P1;SDS_P2;PMS_P1;PMS_P2;Temp;Humidity;BMP_temperature;BMP_pressure;BME280_temperature;BME280_humidity;BME280_pressure;Samples;Min_cycle;Max_cycle;Signal;HPM_P1;HPM_P2
2022/12/05 00:01:39;;;;;;;54.97;21.47;;;;;;;5.47;75.97;101666.00;4991221;27;99396;-84
2022/12/05 00:04:13;;;;;;;52.43;19.93;;;;;;;5.40;75.72;101655.28;4986703;27;100985;-84
2022/12/05 00:06:45;;;;;;;52.07;18.80;;;;;;;5.43;75.85;101668.06;5007706;27;96724;-84
2022/12/05 00:09:16;;;;;;;55.10;21.40;;;;;;;5.42;75.83;101682.91;5009084;27;97154;-82
2022/12/05 00:12:02;;;;;;;47.23;18.00;;;;;;;5.52;75.61;101698.25;4982559;28;99000;-85
2022/12/05 00:14:33;;;;;;;56.13;19.20;;;;;;;5.49;75.51;101692.84;5020828;27;105123;-84
2022/12/05 00:17:03;;;;;;;49.20;18.97;;;;;;;5.48;75.76;101650.41;5020278;27;97238;-85
2022/12/05 00:19:31;;;;;;;57.97;20.07;;;;;;;5.52;75.40;101692.00;5012960;27;97339;-84
2022/12/05 00:21:57;;;;;;;51.20;19.87;;;;;;;5.51;75.25;101653.03;5012070;27;97710;-84
2022/12/05 00:24:30;;;;;;;49.17;19.57;;;;;;;5.41;75.25;101686.84;5013184;27;98671;-84
2022/12/05 00:27:00;;;;;;;53.40;19.53;;;;;;;5.41;75.74;101691.53;4996003;28;96968;-84
2022/12/05 00:29:28;;;;;;;52.07;20.83;;;;;;;5.53;75.88;101650.63;5012897;27;97819;-84
2022/12/05 00:31:56;;;;;;;60.27;19.27;;;;;;;5.47;75.66;101652.38;5001724;27;103790;-83
2022/12/05 00:34:22;;;;;;;61.23;19.33;;;;;;;5.47;75.59;101681.63;5007105;27;99918;-84
2022/12/05 00:36:48;;;;;;;44.93;19.63;;;;;;;5.51;75.65;101650.28;5022772;27;97587;-83
2022/12/05 00:39:14;;;;;;;47.83;21.70;;;;;;;5.38;75.29;101644.03;5022440;27;97075;-84
2022/12/05 00:41:40;;;;;;;48.90;19.87;;;;;;;5.42;75.43;101699.28;5024000;27;99258;-84
2022/12/05 00:44:06;;;;;;;49.30;19.07;;;;;;;5.50;75.69;101665.16;5022705;28;100214;-84
2022/12/05 00:46:33;;;;;;;48.60;18.33;;;;;;;5.54;75.64;101656.84;5013060;27;97127;-83
2022/12/05 00:49:00;;;;;;;48.80;19.27;;;;;;;5.58;75.87;101661.03;5010679;27;97490;-84
2022/12/05 00:51:32;;;;;;;51.70;18.30;;;;;;;5.57;75.19;101658.72;5024217;27;97813;-84
2022/12/05 00:54:03;;;;;;;53.00;20.40;;;;;;;5.48;75.48;101628.56;5024429;27;104723;-84
2022/12/05 00:56:30;;;;;;;49.07;19.60;;;;;;;5.50;75.39;101643.31;5022736;27;96852;-84
2022/12/05 00:58:59;;;;;;;47.90;18.47;;;;;;;5.47;75.27;101643.41;5022290;27;97824;-84
2022/12/05 01:01:34;;;;;;;51.13;19.37;;;;;;;5.48;75.16;101689.38;5019209;28;99603;-84
2022/12/05 01:04:04;;;;;;;53.80;20.23;;;;;;;5.54;75.38;101689.59;5024335;27;100801;-84
2022/12/05 01:06:30;;;;;;;52.77;20.57;;;;;;;5.44;75.80;101704.31;5017571;27;97026;-84
2022/12/05 01:08:57;;;;;;;48.97;20.00;;;;;;;5.53;75.61;101647.91;5022992;27;97466;-84
2022/12/05 01:11:23;;;;;;;48.50;19.20;;;;;;;5.43;75.44;101650.94;5022712;27;97913;-84
2022/12/05 01:16:30;;;;;;;50.03;19.10;;;;;;;5.58;75.21;101650.09;4296981;26;98423;-52
2022/12/05 01:18:57;;;;;;;45.17;18.37;;;;;;;5.64;75.66;101642.13;4976876;27;97227;-48
2022/12/05 01:21:22;;;;;;;48.93;19.50;;;;;;;5.60;75.11;101636.78;4979207;28;97341;-49
2022/12/05 01:23:48;;;;;;;57.07;19.93;;;;;;;5.64;75.39;101653.06;4973519;28;96827;-47
2022/12/05 01:26:16;;;;;;;50.07;19.83;;;;;;;5.60;75.32;101642.25;4980233;28;98303;-47
2022/12/05 01:28:41;;;;;;;44.27;16.73;;;;;;;5.64;75.45;101642.13;4983051;28;97059;-48
2022/12/05 01:31:14;;;;;;;49.80;19.40;;;;;;;5.67;74.88;101652.19;4976076;28;96917;-47
2022/12/05 01:33:40;;;;;;;50.03;19.27;;;;;;;5.69;75.35;101656.03;4962529;28;97195;-48
2022/12/05 01:36:10;;;;;;;48.60;19.30;;;;;;;5.72;75.18;101662.59;4970269;28;98122;-49
2022/12/05 01:38:35;;;;;;;49.93;18.10;;;;;;;5.71;75.39;101653.63;4982823;28;97327;-48
2022/12/05 01:41:03;;;;;;;53.63;19.00;;;;;;;5.75;75.11;101665.19;4978237;28;96766;-46
2022/12/05 01:43:29;;;;;;;47.97;17.67;;;;;;;5.75;75.15;101659.75;4976987;28;97388;-48
2022/12/05 01:45:55;;;;;;;46.83;18.10;;;;;;;5.74;75.02;101660.97;4975263;28;97190;-46
2022/12/05 01:48:33;;;;;;;49.30;18.70;;;;;;;5.74;74.85;101655.50;4982287;28;97083;-50
2022/12/05 01:50:59;;;;;;;46.43;18.43;;;;;;;5.73;74.95;101656.69;4978950;28;97989;-47
2022/12/05 01:53:27;;;;;;;49.33;20.00;;;;;;;5.70;74.84;101656.81;4979464;28;97461;-47
2022/12/05 01:55:53;;;;;;;47.43;21.03;;;;;;;5.69;74.72;101655.25;4979689;28;97374;-46
2022/12/05 01:58:20;;;;;;;57.83;20.03;;;;;;;5.71;74.95;101653.63;4978269;28;97203;-47
2022/12/05 02:00:46;;;;;;;44.67;18.63;;;;;;;5.71;75.17;101648.16;4980416;28;97368;-51
2022/12/05 02:03:18;;;;;;;49.90;19.37;;;;;;;5.73;74.95;101656.69;4964829;28;100890;-47
2022/12/05 02:05:47;;;;;;;53.13;19.87;;;;;;;5.75;74.83;101653.50;4977965;28;97398;-48
2022/12/05 02:08:13;;;;;;;48.60;19.70;;;;;;;5.77;75.23;101651.09;4979245;28;97053;-49
2022/12/05 02:10:42;;;;;;;46.43;19.63;;;;;;;5.77;74.84;101654.63;4975572;28;97279;-50
2022/12/05 02:13:42;;;;;;;48.90;19.07;;;;;;;5.73;74.81;101650.44;4962481;28;97580;-47
2022/12/05 02:16:33;;;;;;;49.07;17.37;;;;;;;5.72;74.86;101641.50;4963341;28;96873;-51
2022/12/05 02:19:44;;;;;;;49.03;18.43;;;;;;;5.74;74.78;101644.56;4973646;28;97381;-47
2022/12/05 02:22:18;;;;;;;54.37;18.27;;;;;;;5.71;74.82;101641.94;4975370;28;100529;-47
2022/12/05 02:24:46;;;;;;;51.67;19.40;;;;;;;5.71;74.97;101636.47;4968613;28;97312;-48
2022/12/05 02:27:46;;;;;;;48.90;18.90;;;;;;;5.71;74.68;101633.75;4960365;28;96766;-53
2022/12/05 02:30:23;;;;;;;43.87;19.00;;;;;;;5.71;74.85;101631.78;4961806;28;96874;-46
2022/12/05 02:33:03;;;;;;;51.67;18.27;;;;;;;5.73;74.64;101639.53;4979801;28;100508;-48
2022/12/05 02:35:38;;;;;;;54.03;19.90;;;;;;;5.66;74.82;101635.03;4981213;28;97386;-48
2022/12/05 02:38:08;;;;;;;47.37;18.33;;;;;;;5.63;74.76;101635.94;4983551;28;98185;-49
2022/12/05 02:40:39;;;;;;;48.17;19.23;;;;;;;5.65;74.77;101635.47;4981347;28;96697;-47
2022/12/05 02:43:22;;;;;;;55.90;19.47;;;;;;;5.69;75.04;101639.66;4974580;28;98124;-48
2022/12/05 02:45:52;;;;;;;43.40;17.77;;;;;;;5.71;75.04;101631.78;4968214;28;97494;-47
2022/12/05 02:48:19;;;;;;;48.67;19.93;;;;;;;5.69;75.00;101636.91;4963758;28;96836;-47
2022/12/05 02:50:47;;;;;;;49.20;19.40;;;;;;;5.72;74.98;101640.75;4966512;28;97337;-46
2022/12/05 02:53:16;;;;;;;51.47;18.80;;;;;;;5.72;74.93;101638.00;4954542;28;97264;-50
2022/12/05 02:55:43;;;;;;;53.60;18.87;;;;;;;5.74;74.93;101636.38;4957453;28;96869;-47
2022/12/05 02:58:18;;;;;;;40.03;16.23;;;;;;;5.76;74.93;101639.44;4961087;28;96949;-48
2022/12/05 03:00:46;;;;;;;43.43;17.57;;;;;;;5.76;74.72;101635.94;4978721;28;97100;-48
2022/12/05 03:03:15;;;;;;;50.93;18.20;;;;;;;5.78;75.15;101628.84;4962388;28;97408;-50
2022/12/05 03:06:01;;;;;;;48.03;19.10;;;;;;;5.80;74.84;101628.41;4961148;28;99597;-46
2022/12/05 03:08:34;;;;;;;44.40;17.67;;;;;;;5.78;75.03;101619.88;4956953;28;97211;-49
2022/12/05 03:11:01;;;;;;;53.87;18.70;;;;;;;5.81;75.06;101625.22;4959406;28;96875;-49
2022/12/05 03:13:34;;;;;;;47.43;19.20;;;;;;;5.82;74.51;101612.34;4961494;28;97341;-46
2022/12/05 03:16:05;;;;;;;49.20;19.40;;;;;;;5.83;74.56;101624.81;4962865;28;97259;-46
2022/12/05 03:18:38;;;;;;;50.00;20.17;;;;;;;5.82;74.48;101606.91;4970246;28;97027;-51
2022/12/05 03:21:14;;;;;;;46.60;18.43;;;;;;;5.81;74.68;101613.56;4974384;28;97302;-47
2022/12/05 03:23:49;;;;;;;53.13;18.90;;;;;;;5.80;74.72;101614.75;4978367;28;98066;-47
2022/12/05 03:26:37;;;;;;;44.57;18.57;;;;;;;5.84;74.78;101618.16;4973503;28;97534;-48
2022/12/05 03:29:11;;;;;;;47.23;18.40;;;;;;;5.80;74.75;101614.75;4960442;28;97559;-46
2022/12/05 03:32:02;;;;;;;46.53;18.97;;;;;;;5.72;74.61;101624.38;4959316;28;96912;-48
2022/12/05 03:34:50;;;;;;;48.47;18.03;;;;;;;5.73;74.96;101610.28;4977001;28;97056;-46
2022/12/05 03:37:33;;;;;;;43.50;18.40;;;;;;;5.76;74.87;101616.84;4956694;28;100898;-49
2022/12/05 03:40:21;;;;;;;49.87;17.00;;;;;;;5.77;74.50;101624.59;4958633;28;96901;-47
2022/12/05 03:42:54;;;;;;;43.73;17.67;;;;;;;5.79;74.74;101627.63;4981160;28;97107;-48
2022/12/05 03:45:30;;;;;;;43.17;18.10;;;;;;;5.78;74.61;101636.28;4982192;28;97807;-47
2022/12/05 03:48:03;;;;;;;43.27;18.70;;;;;;;5.76;74.51;101633.97;4980498;28;97147;-48
2022/12/05 03:50:29;;;;;;;55.27;19.77;;;;;;;5.76;74.66;101633.22;4979759;28;97229;-46
2022/12/05 03:53:00;;;;;;;50.93;17.57;;;;;;;5.79;74.90;101637.78;4982410;28;97417;-48
2022/12/05 03:55:31;;;;;;;44.10;18.30;;;;;;;5.82;74.67;101654.09;4980876;28;100692;-50
2022/12/05 03:58:27;;;;;;;45.70;16.97;;;;;;;5.77;74.67;101635.50;4982724;28;101872;-46
2022/12/05 04:00:56;;;;;;;46.97;16.93;;;;;;;5.79;74.88;101637.78;4960400;28;97286;-48
2022/12/05 04:03:39;;;;;;;34.90;17.10;;;;;;;5.82;74.83;101634.97;4955597;28;96883;-46
2022/12/05 04:06:12;;;;;;;39.90;16.97;;;;;;;5.84;74.59;101638.06;4962686;28;101669;-48
2022/12/05 04:08:44;;;;;;;43.07;18.07;;;;;;;5.83;74.74;101635.75;4964226;28;100104;-47
2022/12/05 04:11:15;;;;;;;38.47;15.70;;;;;;;5.84;74.57;101627.13;4975759;28;96931;-49
2022/12/05 04:13:50;;;;;;;46.50;16.97;;;;;;;5.86;74.55;101621.22;4978359;28;97271;-46
2022/12/05 04:19:16;;;;;;;40.07;17.23;;;;;;;5.82;74.80;101615.84;4973966;28;96939;-49
2022/12/05 04:21:46;;;;;;;41.70;16.17;;;;;;;5.80;74.51;101621.00;4977310;28;97119;-52
2022/12/05 04:27:35;;;;;;;40.10;15.97;;;;;;;5.83;74.73;101611.16;4966798;28;101620;-47
2022/12/05 04:30:07;;;;;;;40.37;15.50;;;;;;;5.83;74.10;101611.16;4971588;28;100176;-46
2022/12/05 04:32:58;;;;;;;36.50;15.50;;;;;;;5.84;74.62;101616.22;4956492;28;96934;-47
2022/12/05 04:35:53;;;;;;;39.27;15.07;;;;;;;5.83;74.57;101619.34;4979589;28;96879;-49
2022/12/05 04:38:40;;;;;;;41.67;15.80;;;;;;;5.82;74.50;101615.84;4961986;28;102341;-47
2022/12/05 04:41:13;;;;;;;41.17;15.77;;;;;;;5.86;74.46;101622.00;4960139;28;100270;-48
2022/12/05 04:43:42;;;;;;;38.97;15.40;;;;;;;5.88;74.46;101619.59;4972559;28;97056;-49
2022/12/05 04:46:10;;;;;;;40.90;16.77;;;;;;;5.91;74.57;101621.47;4983421;28;96998;-48
2022/12/05 04:48:38;;;;;;;45.90;15.97;;;;;;;5.95;74.57;101618.63;4977721;28;98540;-47
2022/12/05 04:51:08;;;;;;;38.07;15.10;;;;;;;5.96;74.14;101626.38;4981128;28;96847;-47
2022/12/05 04:53:35;;;;;;;41.37;16.47;;;;;;;5.93;73.99;101627.25;4980407;28;97276;-47
2022/12/05 04:56:03;;;;;;;36.70;15.27;;;;;;;5.92;74.30;101628.44;4983392;28;97359;-47
2022/12/05 04:58:30;;;;;;;35.90;14.53;;;;;;;5.93;74.30;101629.97;4981917;28;97261;-47
2022/12/05 05:01:24;;;;;;;36.90;15.13;;;;;;;5.92;74.23;101622.97;4983086;28;97056;-47
2022/12/05 05:03:55;;;;;;;39.00;16.53;;;;;;;5.90;74.49;101630.84;4977546;28;97249;-46
2022/12/05 05:06:21;;;;;;;45.00;16.37;;;;;;;5.92;74.39;101636.63;4959034;28;97347;-49
2022/12/05 05:08:49;;;;;;;38.43;16.00;;;;;;;5.91;74.41;101635.13;4959842;28;97319;-47
2022/12/05 05:11:18;;;;;;;39.37;15.80;;;;;;;5.91;74.39;101631.63;4959947;28;97510;-48
2022/12/05 05:13:44;;;;;;;35.63;14.60;;;;;;;5.88;74.05;101630.53;4971687;28;98675;-49
2022/12/05 05:16:18;;;;;;;38.03;14.80;;;;;;;5.90;74.15;101630.06;4981596;28;97297;-47
2022/12/05 05:18:45;;;;;;;41.50;15.20;;;;;;;5.85;74.05;101636.09;4983290;28;97346;-49
2022/12/05 05:21:32;;;;;;;37.50;15.30;;;;;;;5.85;74.28;101639.56;4980049;28;101532;-48
2022/12/05 05:23:57;;;;;;;45.63;16.20;;;;;;;5.82;74.24;101632.25;4960521;28;97157;-46
2022/12/05 05:26:24;;;;;;;41.30;15.73;;;;;;;5.82;74.59;101632.25;4971907;28;97187;-49
2022/12/05 05:28:50;;;;;;;32.50;16.00;;;;;;;5.83;74.22;101638.47;4981717;28;97625;-49
2022/12/05 05:31:16;;;;;;;37.53;16.80;;;;;;;5.81;74.25;101636.16;4984163;28;97888;-48
2022/12/05 05:33:42;;;;;;;43.13;16.30;;;;;;;5.81;74.54;101640.88;4980144;28;97562;-49
2022/12/05 05:36:10;;;;;;;36.20;15.63;;;;;;;5.81;74.19;101627.97;4982183;28;97413;-49
2022/12/05 05:38:41;;;;;;;35.00;14.67;;;;;;;5.85;74.27;101638.84;4983350;28;97876;-49
2022/12/05 05:41:35;;;;;;;35.53;15.10;;;;;;;5.81;74.54;101630.69;4975880;28;97161;-48
2022/12/05 05:44:02;;;;;;;32.10;13.83;;;;;;;5.78;74.36;101625.34;4961043;28;97128;-49
2022/12/05 05:46:31;;;;;;;36.70;14.87;;;;;;;5.78;74.21;101628.09;4981833;28;99859;-48
2022/12/05 05:48:57;;;;;;;30.50;13.10;;;;;;;5.77;74.47;101630.03;4977112;28;97373;-49
2022/12/05 05:51:28;;;;;;;35.20;14.03;;;;;;;5.76;74.42;101630.47;4981382;28;97701;-49
2022/12/05 05:53:54;;;;;;;33.57;14.00;;;;;;;5.78;74.40;101630.81;4982052;28;97163;-49
2022/12/05 05:56:20;;;;;;;33.23;13.70;;;;;;;5.81;74.55;101632.69;4981708;28;97297;-48
2022/12/05 05:58:46;;;;;;;28.67;14.10;;;;;;;5.81;74.40;101632.69;4983950;28;97023;-49
2022/12/05 06:01:19;;;;;;;29.50;13.00;;;;;;;5.82;74.55;101623.28;4978645;28;96719;-48
2022/12/05 06:03:44;;;;;;;29.20;13.10;;;;;;;5.81;74.50;101630.69;4978938;28;97178;-48
2022/12/05 06:06:13;;;;;;;31.17;14.57;;;;;;;5.84;74.38;101620.91;4980147;28;96893;-49
2022/12/05 06:08:41;;;;;;;37.83;14.40;;;;;;;5.84;74.19;101624.41;4980809;28;97509;-47
2022/12/05 06:11:13;;;;;;;35.90;13.77;;;;;;;5.82;74.40;101624.03;4983942;28;97071;-48
2022/12/05 06:13:38;;;;;;;29.23;12.67;;;;;;;5.84;74.31;101629.09;4977279;28;96923;-49
2022/12/05 06:16:06;;;;;;;33.90;14.00;;;;;;;5.86;74.45;101622.00;4957881;28;96812;-49
2022/12/05 06:18:32;;;;;;;31.80;13.87;;;;;;;5.85;74.36;101619.72;4957388;28;97145;-51
2022/12/05 06:20:58;;;;;;;31.63;14.20;;;;;;;5.82;74.30;101629.50;4955622;27;97208;-48
2022/12/05 06:23:25;;;;;;;31.93;12.90;;;;;;;5.86;74.24;101621.22;4961063;28;97489;-48
2022/12/05 06:25:53;;;;;;;30.60;13.37;;;;;;;5.85;74.27;101642.31;4957289;28;96986;-48
2022/12/05 06:28:20;;;;;;;31.70;15.17;;;;;;;5.84;74.25;101621.66;4962903;28;97388;-48
2022/12/05 06:30:45;;;;;;;34.70;12.80;;;;;;;5.82;74.10;101621.31;4961254;28;97349;-49
2022/12/05 06:33:11;;;;;;;39.07;13.07;;;;;;;5.81;74.05;101636.16;4956811;28;97186;-49
2022/12/05 06:35:37;;;;;;;28.87;12.00;;;;;;;5.84;74.41;101637.28;4959436;28;96967;-49
2022/12/05 06:38:03;;;;;;;28.27;12.77;;;;;;;5.86;74.29;101640.34;4959376;28;96990;-49
2022/12/05 06:40:28;;;;;;;29.77;13.40;;;;;;;5.85;74.26;101642.31;4958859;28;97315;-48
2022/12/05 06:42:54;;;;;;;31.70;13.37;;;;;;;5.87;73.99;101641.88;4966361;28;96653;-49
2022/12/05 06:45:19;;;;;;;33.03;12.73;;;;;;;5.83;74.14;101641.94;4966008;28;96845;-49
2022/12/05 06:47:45;;;;;;;26.43;11.60;;;;;;;5.80;74.13;101640.09;4960578;28;97759;-48
2022/12/05 06:50:10;;;;;;;25.70;12.10;;;;;;;5.79;74.24;101638.56;4961550;28;96999;-48
2022/12/05 06:52:36;;;;;;;32.37;13.20;;;;;;;5.76;74.16;101644.13;4954616;28;96852;-49
2022/12/05 06:55:01;;;;;;;32.60;13.50;;;;;;;5.75;74.26;101637.13;4962070;28;97038;-48
2022/12/05 06:57:27;;;;;;;29.10;13.27;;;;;;;5.76;74.40;101646.88;4958740;28;97735;-48
2022/12/05 07:01:37;;;;;;;29.47;14.07;;;;;;;5.78;74.29;101637.03;4975548;28;98407;-48
2022/12/05 07:02:40;;;;;;;28.00;12.90;;;;;;;5.81;74.02;101646.34;4984075;28;97296;-49
2022/12/05 07:05:09;;;;;;;26.27;11.40;;;;;;;5.80;74.20;101645.56;4962836;28;97382;-49
2022/12/05 07:07:34;;;;;;;29.60;12.60;;;;;;;5.83;73.95;101646.66;4962465;28;97496;-49
2022/12/05 07:10:00;;;;;;;24.87;11.57;;;;;;;5.82;73.84;101645.13;4967629;28;97398;-49
2022/12/05 07:12:25;;;;;;;26.00;13.33;;;;;;;5.84;74.08;101650.94;4979581;28;97384;-48
2022/12/05 07:14:51;;;;;;;26.77;11.20;;;;;;;5.85;73.79;101647.75;4983369;28;97481;-53
2022/12/05 07:17:20;;;;;;;24.53;11.53;;;;;;;5.87;74.07;101652.81;4981378;28;97342;-49
2022/12/05 07:19:49;;;;;;;27.53;12.40;;;;;;;5.85;73.90;101650.50;4983663;28;97460;-49
2022/12/05 07:22:18;;;;;;;24.57;10.90;;;;;;;5.79;73.70;101654.94;4976214;28;96964;-49
2022/12/05 07:24:44;;;;;;;27.83;12.53;;;;;;;5.75;73.82;101658.97;4977833;28;96791;-50
2022/12/05 07:27:10;;;;;;;27.67;11.83;;;;;;;5.78;74.26;101649.94;4983929;28;97508;-49
2022/12/05 07:29:36;;;;;;;22.57;11.30;;;;;;;5.81;74.09;101660.72;4982263;28;97136;-49
2022/12/05 07:32:01;;;;;;;28.30;12.73;;;;;;;5.81;74.06;101654.53;4980650;28;97207;-49
2022/12/05 07:34:27;;;;;;;25.17;10.93;;;;;;;5.82;73.58;101656.03;4982270;28;96691;-49
2022/12/05 07:36:52;;;;;;;27.37;11.97;;;;;;;5.81;73.74;101679.09;4982579;28;97431;-49
2022/12/05 07:39:18;;;;;;;28.73;11.93;;;;;;;5.75;73.70;101659.75;4977739;28;97147;-48
2022/12/05 07:41:43;;;;;;;25.67;11.83;;;;;;;5.68;73.70;101664.66;4982201;28;96986;-48
2022/12/05 07:44:11;;;;;;;25.27;11.73;;;;;;;5.66;73.75;101656.88;4961201;28;97296;-49
2022/12/05 07:46:37;;;;;;;21.47;10.97;;;;;;;5.69;73.80;101658.75;4960959;28;97277;-48
2022/12/05 07:49:03;;;;;;;27.10;12.23;;;;;;;5.67;73.64;101676.75;4958676;28;96866;-49
2022/12/05 07:51:28;;;;;;;24.77;11.50;;;;;;;5.65;73.88;101663.56;4961570;28;97062;-49
2022/12/05 07:53:54;;;;;;;29.23;11.70;;;;;;;5.64;73.67;101667.47;4960118;28;97087;-54
2022/12/05 07:56:20;;;;;;;25.80;11.40;;;;;;;5.64;73.87;101670.19;4963819;28;97302;-49
2022/12/05 07:58:48;;;;;;;25.93;11.60;;;;;;;5.67;74.04;101658.44;4973546;28;97303;-49
2022/12/05 08:01:21;;;;;;;27.57;11.53;;;;;;;5.71;73.76;101652.84;4959996;28;96870;-49
2022/12/05 08:03:47;;;;;;;27.60;12.00;;;;;;;5.72;73.76;101654.41;4976081;28;97085;-49
2022/12/05 08:06:15;;;;;;;26.57;11.70;;;;;;;5.71;73.96;101659.09;4974628;28;98445;-50
2022/12/05 08:08:41;;;;;;;21.63;11.33;;;;;;;5.71;73.67;101659.09;4981320;28;97887;-49
2022/12/05 08:11:11;;;;;;;30.27;11.50;;;;;;;5.68;73.80;101665.41;4983854;28;97345;-49
2022/12/05 08:13:36;;;;;;;23.90;12.20;;;;;;;5.68;73.87;101657.22;4963579;28;96962;-49
2022/12/05 08:16:04;;;;;;;26.43;12.83;;;;;;;5.70;73.78;101662.25;4979825;28;97541;-49
2022/12/05 08:18:30;;;;;;;21.80;12.50;;;;;;;5.65;73.62;101660.81;4974321;28;97050;-49
2022/12/05 08:21:11;;;;;;;24.70;12.20;;;;;;;5.66;73.79;101667.81;4978508;28;96683;-49
2022/12/05 08:23:37;;;;;;;30.67;12.83;;;;;;;5.71;73.79;101669.22;4983862;28;96787;-49
2022/12/05 08:26:10;;;;;;;27.77;12.80;;;;;;;5.74;74.04;101684.75;4981899;28;97130;-49
2022/12/05 08:28:35;;;;;;;22.80;11.07;;;;;;;5.76;73.90;101669.47;4987090;28;97287;-49
2022/12/05 08:31:08;;;;;;;28.30;12.60;;;;;;;5.76;73.60;101679.63;4982345;28;96985;-49
2022/12/05 08:33:33;;;;;;;31.03;12.47;;;;;;;5.80;73.72;101669.38;4979269;28;96801;-49
2022/12/05 08:36:04;;;;;;;21.80;11.73;;;;;;;5.79;73.63;101667.81;4972198;28;97173;-50
2022/12/05 08:38:30;;;;;;;28.57;12.30;;;;;;;5.79;73.77;101671.31;4969885;28;103783;-49
2022/12/05 08:40:58;;;;;;;25.30;11.90;;;;;;;5.84;73.77;101672.78;4981132;28;96671;-49
2022/12/05 08:43:24;;;;;;;26.23;12.47;;;;;;;5.86;73.77;101678.56;4977523;28;97437;-49
2022/12/05 08:45:50;;;;;;;26.80;12.90;;;;;;;5.88;73.71;101676.94;4983723;28;96779;-49
2022/12/05 08:48:16;;;;;;;25.33;11.53;;;;;;;5.89;73.70;101677.72;4984623;28;97279;-49
2022/12/05 08:50:41;;;;;;;25.03;11.60;;;;;;;5.89;73.35;101677.72;4984136;28;97011;-49
2022/12/05 08:53:07;;;;;;;28.63;13.53;;;;;;;5.89;73.46;101683.94;4982818;28;97139;-49
2022/12/05 08:55:36;;;;;;;26.33;11.60;;;;;;;5.87;73.28;101678.16;4983498;28;97095;-50
2022/12/05 08:58:02;;;;;;;25.63;12.10;;;;;;;5.88;73.68;101690.59;4981464;28;97013;-49
2022/12/05 09:00:27;;;;;;;25.07;12.40;;;;;;;5.82;73.42;101692.31;4985160;28;97324;-50
2022/12/05 09:02:52;;;;;;;30.20;12.60;;;;;;;5.77;73.84;101683.88;4983554;28;97268;-49
2022/12/05 09:05:18;;;;;;;21.77;10.87;;;;;;;5.83;74.00;101687.63;4980168;28;96853;-49
2022/12/05 09:07:43;;;;;;;24.87;11.70;;;;;;;5.84;73.76;101695.41;4977432;28;97886;-49
2022/12/05 09:10:09;;;;;;;24.20;10.93;;;;;;;5.87;73.83;101697.28;4979933;28;97135;-49
2022/12/05 09:12:36;;;;;;;28.47;13.27;;;;;;;5.92;73.70;101695.94;4974560;28;97139;-49
2022/12/05 09:15:01;;;;;;;30.67;12.87;;;;;;;5.95;73.51;101692.34;4984431;28;97567;-48
2022/12/05 09:17:26;;;;;;;24.67;11.37;;;;;;;5.91;73.50;101697.16;4978627;28;97074;-49
2022/12/05 09:19:53;;;;;;;24.20;12.00;;;;;;;5.87;73.15;101689.09;4980625;28;97258;-49
2022/12/05 09:22:18;;;;;;;28.27;12.33;;;;;;;5.83;73.64;101688.38;4977509;28;96794;-48
2022/12/05 09:24:43;;;;;;;29.70;12.67;;;;;;;5.82;73.49;101692.31;4978157;28;98026;-52
2022/12/05 09:27:09;;;;;;;27.03;12.10;;;;;;;5.87;73.72;101688.31;4982599;28;97205;-49
2022/12/05 09:29:34;;;;;;;23.27;11.50;;;;;;;5.92;73.86;101685.78;4985479;28;97098;-48
2022/12/05 09:32:00;;;;;;;22.80;10.30;;;;;;;5.95;73.54;101690.41;4966552;27;97520;-49
2022/12/05 09:34:25;;;;;;;20.63;10.93;;;;;;;5.95;73.36;101682.19;4964298;28;99330;-49
2022/12/05 09:36:51;;;;;;;28.77;12.03;;;;;;;5.96;73.53;101688.44;4964001;28;97159;-49
2022/12/05 09:39:17;;;;;;;22.70;11.73;;;;;;;5.96;73.63;101686.44;4958176;28;97002;-48
2022/12/05 09:42:38;;;;;;;25.73;11.57;;;;;;;5.95;73.04;101690.41;4960211;28;97305;-49
2022/12/05 09:45:16;;;;;;;25.03;11.07;;;;;;;5.94;73.66;101688.09;4957944;28;101041;-49
2022/12/05 09:47:51;;;;;;;18.03;9.47;;;;;;;5.93;73.49;101673.69;4961970;28;97348;-49
2022/12/05 09:50:23;;;;;;;27.00;12.27;;;;;;;5.94;73.60;101674.47;4966510;28;97269;-49
2022/12/05 09:52:57;;;;;;;25.03;10.07;;;;;;;5.91;73.18;101681.53;4982645;28;97238;-49
2022/12/05 09:55:23;;;;;;;18.03;9.77;;;;;;;5.89;73.58;101670.28;4985706;28;97425;-49
2022/12/05 09:58:01;;;;;;;23.97;10.90;;;;;;;5.89;73.35;101669.53;4984014;28;96679;-49
2022/12/05 10:00:29;;;;;;;20.47;10.50;;;;;;;5.88;73.54;101670.72;4980215;28;97077;-49
2022/12/05 10:03:02;;;;;;;23.37;11.40;;;;;;;5.89;73.69;101672.25;4971371;28;96891;-49
2022/12/05 10:05:43;;;;;;;21.17;11.13;;;;;;;5.92;73.45;101668.63;4963034;28;97408;-48
2022/12/05 10:08:29;;;;;;;22.57;11.43;;;;;;;5.90;73.49;101663.63;4985066;28;96832;-49
2022/12/05 10:11:00;;;;;;;20.00;11.10;;;;;;;5.93;73.89;101665.50;4962356;28;97105;-50
2022/12/05 10:13:47;;;;;;;24.50;11.63;;;;;;;5.99;73.87;101655.56;4961388;28;97357;-50
2022/12/05 10:16:21;;;;;;;21.80;11.13;;;;;;;6.05;73.85;101664.72;4974564;28;102493;-49
2022/12/05 10:18:53;;;;;;;27.70;10.07;;;;;;;6.12;73.89;101658.28;4976302;28;97201;-48
2022/12/05 10:21:32;;;;;;;17.67;9.30;;;;;;;6.11;72.88;101658.72;4969106;28;96946;-49
2022/12/05 10:24:03;;;;;;;20.20;9.63;;;;;;;6.12;73.55;101661.00;4980984;28;96711;-49
2022/12/05 10:26:33;;;;;;;22.83;10.20;;;;;;;6.16;73.55;101663.66;4979628;28;97529;-49
2022/12/05 10:29:16;;;;;;;16.27;9.47;;;;;;;6.18;73.31;101663.97;4978638;28;97756;-48
2022/12/05 10:31:44;;;;;;;20.63;9.87;;;;;;;6.18;73.61;101667.44;4981661;28;97007;-49
2022/12/05 10:34:39;;;;;;;21.60;9.97;;;;;;;6.13;73.06;101672.72;4979231;27;97322;-49
2022/12/05 10:37:15;;;;;;;22.83;10.50;;;;;;;6.12;73.32;101668.44;4958815;28;100462;-50
2022/12/05 10:39:41;;;;;;;22.27;10.50;;;;;;;6.11;73.28;101667.69;4957997;28;97393;-49
2022/12/05 10:42:14;;;;;;;20.43;10.67;;;;;;;6.10;73.60;101660.69;4963805;28;97400;-48
2022/12/05 10:44:39;;;;;;;23.27;9.33;;;;;;;6.05;73.36;101661.22;4961857;28;97297;-49
2022/12/05 10:47:05;;;;;;;24.27;11.03;;;;;;;6.09;73.47;101658.41;4968724;28;97677;-49
2022/12/05 10:49:33;;;;;;;19.80;11.13;;;;;;;6.11;73.57;101658.72;4978335;28;96808;-49
2022/12/05 10:51:59;;;;;;;21.57;10.10;;;;;;;6.16;73.58;101656.19;4980732;28;96974;-48
2022/12/05 10:54:29;;;;;;;19.10;9.33;;;;;;;6.08;73.19;101654.91;4985988;28;97648;-48
2022/12/05 10:56:54;;;;;;;19.60;10.47;;;;;;;6.03;73.55;101650.75;4980190;28;97589;-48
2022/12/05 10:59:23;;;;;;;21.33;10.00;;;;;;;6.01;73.58;101650.41;4978455;28;97139;-50
2022/12/05 11:01:55;;;;;;;19.00;9.50;;;;;;;6.07;73.48;101672.50;4983553;28;97166;-49
2022/12/05 11:04:42;;;;;;;24.00;9.90;;;;;;;6.13;73.56;101646.16;4984131;28;97129;-48
2022/12/05 11:07:23;;;;;;;23.97;10.20;;;;;;;6.13;73.33;101650.84;4964373;28;100587;-49
2022/12/05 11:09:49;;;;;;;18.10;9.10;;;;;;;6.14;73.13;101646.94;4971617;28;100342;-49
2022/12/05 11:12:26;;;;;;;14.70;8.90;;;;;;;6.13;73.41;101645.41;4974373;28;96905;-49
2022/12/05 11:15:03;;;;;;;14.13;8.57;;;;;;;6.13;73.46;101651.63;4981593;28;97240;-48
2022/12/05 11:17:38;;;;;;;20.40;10.10;;;;;;;6.13;73.26;101651.63;4980214;28;97361;-50
2022/12/05 11:20:19;;;;;;;17.03;9.03;;;;;;;6.13;73.13;101642.66;4983609;28;96868;-48
2022/12/05 11:22:50;;;;;;;19.90;9.70;;;;;;;6.15;73.21;101648.44;4982253;28;96702;-49
2022/12/05 11:25:45;;;;;;;15.37;8.50;;;;;;;6.16;73.17;101633.59;4978811;28;97117;-49
2022/12/05 11:28:16;;;;;;;17.00;8.90;;;;;;;6.19;73.39;101644.41;4967983;28;100707;-49
2022/12/05 11:31:11;;;;;;;19.17;8.07;;;;;;;6.21;73.18;101638.50;4968602;28;97242;-48
2022/12/05 11:33:36;;;;;;;16.30;8.03;;;;;;;6.20;73.41;101637.75;4953130;27;97310;-49
2022/12/05 11:36:10;;;;;;;18.17;8.57;;;;;;;6.24;73.25;101634.91;4966633;28;97613;-49
2022/12/05 11:38:35;;;;;;;14.77;7.97;;;;;;;6.18;73.12;101637.41;4965409;28;100708;-49
2022/12/05 11:41:09;;;;;;;14.70;8.50;;;;;;;6.13;73.11;101637.97;4978850;28;97241;-49
2022/12/05 11:44:10;;;;;;;15.40;7.17;;;;;;;6.12;73.16;101638.38;4985759;28;97037;-49